Time;durP1;ratioP1;P1;durP2;ratioP2;P2;SDS_P1;SDS_P2;PMS_P1;PMS_P2;Temp;Humidity;BMP_temperature;BMP_pressure;BME280_temperature;BME280_humidity;BME280_pressure;Samples;Min_cycle;Max_cycle;Signal;HPM_P1;HPM_P2
2023/04/01 00:00:06;;;;;;;0.75;0.40;;;8.80;99.90;;;;;;5074161;28;20406;-82
2023/04/01 00:02:32;;;;;;;1.67;0.40;;;8.70;99.90;;;;;;5073867;28;20372;-82
2023/04/01 00:04:57;;;;;;;1.17;0.47;;;8.50;99.90;;;;;;5074148;28;20386;-82
2023/04/01 00:07:23;;;;;;;0.70;0.30;;;8.40;99.90;;;;;;5074930;28;20395;-82
2023/04/01 00:09:48;;;;;;;1.13;0.40;;;8.30;99.90;;;;;;5078827;28;20383;-84
2023/04/01 00:12:14;;;;;;;1.20;0.40;;;8.20;99.90;;;;;;5078865;28;20387;-83
2023/04/01 00:14:40;;;;;;;0.50;0.40;;;8.10;99.90;;;;;;5078891;28;20386;-83
2023/04/01 00:17:05;;;;;;;1.13;0.50;;;8.10;99.90;;;;;;5079497;28;20392;-84
2023/04/01 00:19:32;;;;;;;1.40;0.40;;;8.10;99.90;;;;;;5099354;28;20464;-84
2023/04/01 00:21:58;;;;;;;1.63;1.20;;;8.10;99.90;;;;;;5099803;28;20375;-83
2023/04/01 00:24:23;;;;;;;1.23;0.70;;;8.20;99.90;;;;;;5084820;28;20430;-84
2023/04/01 00:26:49;;;;;;;1.13;0.50;;;8.30;99.90;;;;;;5080934;28;20403;-84
2023/04/01 00:29:14;;;;;;;1.60;0.60;;;8.30;99.90;;;;;;5062653;28;20395;-84
2023/04/01 00:31:40;;;;;;;1.80;0.60;;;8.30;99.90;;;;;;5061800;28;20470;-84
2023/04/01 00:34:05;;;;;;;2.50;0.60;;;8.40;99.90;;;;;;5059663;28;20383;-84
2023/04/01 00:36:31;;;;;;;1.80;0.60;;;8.30;99.90;;;;;;5059720;28;20383;-84
2023/04/01 00:38:58;;;;;;;3.20;0.80;;;8.40;99.90;;;;;;5060088;28;20427;-85
2023/04/01 00:41:26;;;;;;;4.50;1.20;;;8.50;99.90;;;;;;5059231;28;20390;-84
2023/04/01 00:43:51;;;;;;;3.45;1.10;;;8.50;99.90;;;;;;5059558;28;20932;-83
2023/04/01 00:46:18;;;;;;;2.15;0.90;;;8.50;99.90;;;;;;5056940;28;20386;-83
2023/04/01 00:49:02;;;;;;;5.45;1.35;;;8.60;99.90;;;;;;5056799;28;20421;-84
2023/04/01 00:51:30;;;;;;;4.13;1.10;;;8.60;99.90;;;;;;5039346;28;20385;-84
2023/04/01 00:54:01;;;;;;;4.30;0.90;;;8.60;99.90;;;;;;5043479;28;20393;-84
2023/04/01 00:56:44;;;;;;;3.95;1.20;;;8.60;99.90;;;;;;5054071;28;20554;-86
2023/04/01 00:59:17;;;;;;;2.28;1.08;;;8.70;99.90;;;;;;5043681;28;20398;-85
2023/04/01 01:01:43;;;;;;;2.65;1.02;;;8.70;99.90;;;;;;5061916;28;20472;-85
2023/04/01 01:04:22;;;;;;;5.40;1.70;;;8.70;99.90;;;;;;5043669;28;20443;-85
2023/04/01 01:07:25;;;;;;;4.25;1.17;;;8.80;99.90;;;;;;5042308;28;20762;-83
2023/04/01 01:10:09;;;;;;;3.88;1.27;;;8.80;99.90;;;;;;5041513;28;20970;-85
2023/04/01 01:12:46;;;;;;;6.80;1.43;;;8.80;99.90;;;;;;5041154;28;20417;-85
2023/04/01 01:15:32;;;;;;;4.25;1.40;;;8.80;99.90;;;;;;5059061;28;20386;-84
2023/04/01 01:18:19;;;;;;;7.65;1.70;;;8.70;99.90;;;;;;5059038;28;20425;-83
2023/04/01 01:20:48;;;;;;;7.18;1.42;;;8.60;99.90;;;;;;5056669;28;20397;-83
2023/04/01 01:23:51;;;;;;;5.40;1.30;;;8.50;99.90;;;;;;5039012;28;20550;-84
2023/04/01 01:26:29;;;;;;;3.20;1.30;;;8.50;99.90;;;;;;5040884;28;20913;-84
2023/04/01 01:29:17;;;;;;;3.33;1.60;;;8.50;99.90;;;;;;5059063;28;20412;-84
2023/04/01 01:31:54;;;;;;;5.43;1.60;;;8.50;99.90;;;;;;5059095;28;20370;-84
2023/04/01 01:34:35;;;;;;;7.95;2.00;;;8.60;99.90;;;;;;5041708;28;20480;-85
2023/04/01 01:37:05;;;;;;;6.43;2.53;;;8.60;99.90;;;;;;5040415;28;20377;-85
2023/04/01 01:39:33;;;;;;;10.18;3.20;;;8.70;99.90;;;;;;5040872;28;20402;-84
2023/04/01 01:42:04;;;;;;;8.38;2.03;;;8.70;99.90;;;;;;5058769;28;20377;-83
2023/04/01 01:44:32;;;;;;;3.95;1.70;;;8.70;99.90;;;;;;5047374;28;20384;-84
2023/04/01 01:46:58;;;;;;;5.22;1.70;;;8.80;99.90;;;;;;5076471;28;20407;-84
2023/04/01 01:49:24;;;;;;;5.80;1.77;;;8.80;99.90;;;;;;5058667;28;20388;-84
2023/04/01 01:51:50;;;;;;;5.70;2.10;;;8.90;99.90;;;;;;5076052;28;20900;-84
2023/04/01 01:54:19;;;;;;;4.47;1.50;;;8.90;99.90;;;;;;5058314;28;20388;-84
2023/04/01 01:56:48;;;;;;;4.55;1.67;;;8.90;99.90;;;;;;5076122;28;20384;-84
2023/04/01 01:59:15;;;;;;;8.30;2.20;;;9.00;99.90;;;;;;5057512;28;20773;-83
2023/04/01 02:01:46;;;;;;;4.37;1.73;;;9.10;99.90;;;;;;5079853;28;20386;-84
2023/04/01 02:04:14;;;;;;;7.90;1.60;;;9.10;99.90;;;;;;5063240;28;20387;-84
2023/04/01 02:06:44;;;;;;;5.30;1.50;;;9.10;99.90;;;;;;5077835;28;20387;-85
2023/04/01 02:09:11;;;;;;;5.30;1.60;;;9.10;99.90;;;;;;5058484;28;20398;-83
2023/04/01 02:11:47;;;;;;;6.88;2.00;;;9.00;99.90;;;;;;5076597;28;20383;-83
2023/04/01 02:14:23;;;;;;;6.35;2.05;;;9.00;99.90;;;;;;5058288;28;20473;-83
2023/04/01 02:17:04;;;;;;;7.65;1.70;;;9.00;99.90;;;;;;5075989;28;20411;-84
2023/04/01 02:19:37;;;;;;;5.72;1.75;;;9.00;99.90;;;;;;5057642;28;20407;-85
2023/04/01 02:22:05;;;;;;;3.67;1.38;;;9.00;99.90;;;;;;5057344;28;20455;-84
2023/04/01 02:24:34;;;;;;;6.45;1.65;;;9.00;99.90;;;;;;5075640;28;20376;-85
2023/04/01 02:27:00;;;;;;;5.97;2.00;;;8.90;99.90;;;;;;5057196;28;20380;-84
2023/04/01 02:29:26;;;;;;;9.23;2.20;;;8.90;99.90;;;;;;5057590;28;20388;-84
2023/04/01 02:31:53;;;;;;;8.77;2.40;;;8.80;99.90;;;;;;5057095;28;20394;-84
2023/04/01 02:34:58;;;;;;;4.70;1.70;;;8.70;99.90;;;;;;5060774;28;20412;-85
2023/04/01 02:37:24;;;;;;;7.32;2.10;;;8.70;99.90;;;;;;5053746;28;20507;-83
2023/04/01 02:39:50;;;;;;;7.53;1.73;;;8.60;99.90;;;;;;5064391;28;20432;-83
2023/04/01 02:42:15;;;;;;;5.03;1.70;;;8.60;99.90;;;;;;5055235;28;20871;-84
2023/04/01 02:44:41;;;;;;;4.70;1.50;;;8.50;99.90;;;;;;5062097;28;20384;-85
2023/04/01 02:47:06;;;;;;;2.20;1.70;;;8.50;99.90;;;;;;5058260;28;20403;-84
2023/04/01 02:49:32;;;;;;;3.07;0.93;;;8.40;99.90;;;;;;5073741;28;20383;-83
2023/04/01 02:51:57;;;;;;;5.73;1.30;;;8.40;99.90;;;;;;5073700;28;20734;-84
2023/04/01 02:54:23;;;;;;;2.03;0.70;;;8.30;99.90;;;;;;5074562;28;20472;-83
2023/04/01 02:56:48;;;;;;;4.00;1.00;;;8.30;99.90;;;;;;5074121;28;20435;-84
2023/04/01 02:59:14;;;;;;;4.78;1.45;;;8.20;99.90;;;;;;5056404;28;20404;-85
2023/04/01 03:01:39;;;;;;;4.47;1.50;;;8.20;99.90;;;;;;5065547;28;20376;-84
2023/04/01 03:04:05;;;;;;;4.82;1.40;;;8.20;99.90;;;;;;5088643;28;20625;-84
2023/04/01 03:06:31;;;;;;;5.32;1.55;;;8.20;99.90;;;;;;5089835;28;20391;-84
2023/04/01 03:08:57;;;;;;;8.03;2.30;;;8.30;99.90;;;;;;5089485;28;20392;-84
2023/04/01 03:11:22;;;;;;;4.68;1.85;;;8.30;99.90;;;;;;5078748;28;20392;-83
2023/04/01 03:13:48;;;;;;;7.90;2.20;;;8.30;99.90;;;;;;5075648;28;20695;-84
2023/04/01 03:16:14;;;;;;;5.80;2.00;;;8.20;99.90;;;;;;5075101;28;20387;-84
2023/04/01 03:18:39;;;;;;;5.15;1.85;;;8.20;99.90;;;;;;5057559;28;20468;-83
2023/04/01 03:21:20;;;;;;;6.35;1.70;;;8.20;99.90;;;;;;5056732;28;20399;-84
2023/04/01 03:23:46;;;;;;;6.13;1.40;;;8.30;99.90;;;;;;5073530;28;20394;-84
2023/04/01 03:26:12;;;;;;;6.47;1.60;;;8.30;99.90;;;;;;5073837;28;20387;-83
2023/04/01 03:28:37;;;;;;;4.97;1.63;;;8.30;99.90;;;;;;5055984;28;20422;-82
2023/04/01 03:31:03;;;;;;;5.47;1.23;;;8.30;99.90;;;;;;5073475;28;20479;-82
2023/04/01 03:33:29;;;;;;;3.20;0.97;;;8.20;99.90;;;;;;5074345;28;20502;-84
2023/04/01 03:35:54;;;;;;;3.10;1.58;;;8.30;99.90;;;;;;5056351;28;20403;-82
2023/04/01 03:38:20;;;;;;;3.85;1.08;;;8.30;99.90;;;;;;5055748;28;20383;-82
2023/04/01 03:40:45;;;;;;;2.92;1.10;;;8.20;99.90;;;;;;5073853;28;20947;-82
2023/04/01 03:43:11;;;;;;;4.70;1.15;;;8.20;99.90;;;;;;5080164;28;20388;-82
2023/04/01 03:45:47;;;;;;;3.20;0.90;;;8.20;99.90;;;;;;5047680;28;20412;-83
2023/04/01 03:48:16;;;;;;;5.78;1.17;;;8.20;99.90;;;;;;5042777;28;20425;-82
2023/04/01 03:50:42;;;;;;;4.20;1.40;;;8.10;99.90;;;;;;5042251;28;20435;-83
2023/04/01 03:53:08;;;;;;;4.38;1.08;;;8.00;99.90;;;;;;5075491;28;20412;-82
2023/04/01 03:55:35;;;;;;;5.20;1.20;;;8.00;99.90;;;;;;5044369;28;20915;-83
2023/04/01 03:58:02;;;;;;;4.20;1.30;;;8.00;99.90;;;;;;5061329;28;20801;-83
2023/04/01 04:00:30;;;;;;;3.40;1.10;;;8.00;99.90;;;;;;5042997;28;20401;-83
2023/04/01 04:02:56;;;;;;;4.72;1.10;;;8.00;99.90;;;;;;5043511;28;20386;-84
2023/04/01 04:05:23;;;;;;;3.70;1.20;;;8.00;99.90;;;;;;5061240;28;20463;-84
2023/04/01 04:07:49;;;;;;;3.33;0.90;;;8.00;99.90;;;;;;5061825;28;20471;-83
2023/04/01 04:10:15;;;;;;;2.20;1.00;;;8.00;99.90;;;;;;5043029;28;20393;-83
2023/04/01 04:12:40;;;;;;;3.00;1.00;;;8.10;99.90;;;;;;5043392;28;20397;-82
2023/04/01 04:15:07;;;;;;;3.10;0.93;;;8.10;99.90;;;;;;5043871;28;20404;-83
2023/04/01 04:17:32;;;;;;;2.10;0.70;;;8.10;99.90;;;;;;5061509;28;20438;-83
2023/04/01 04:19:58;;;;;;;1.83;0.70;;;8.10;99.90;;;;;;5044402;28;20413;-83
2023/04/01 04:22:24;;;;;;;1.90;1.27;;;8.10;99.90;;;;;;5044138;28;20456;-83
2023/04/01 04:24:49;;;;;;;2.97;1.10;;;8.10;99.90;;;;;;5067943;28;20413;-82
2023/04/01 04:27:15;;;;;;;2.78;0.70;;;8.10;99.90;;;;;;5047820;28;20386;-83
2023/04/01 04:29:40;;;;;;;4.28;0.85;;;8.20;99.90;;;;;;5061130;28;20408;-83
2023/04/01 04:32:06;;;;;;;3.57;1.00;;;8.10;99.90;;;;;;5060419;28;20401;-83
2023/04/01 04:34:32;;;;;;;2.17;0.70;;;8.30;99.90;;;;;;5061135;28;20818;-83
2023/04/01 04:36:57;;;;;;;4.20;1.10;;;8.30;99.90;;;;;;5059704;28;20385;-83
2023/04/01 04:39:23;;;;;;;2.28;1.10;;;8.30;99.90;;;;;;5061001;28;20805;-82
2023/04/01 04:41:49;;;;;;;2.97;0.80;;;8.30;99.90;;;;;;5042034;28;20738;-81
2023/04/01 04:44:14;;;;;;;5.15;1.45;;;8.20;99.90;;;;;;5063464;28;20380;-82
2023/04/01 04:46:40;;;;;;;3.40;1.20;;;8.30;99.90;;;;;;5079678;28;20391;-82
2023/04/01 04:49:06;;;;;;;2.15;0.90;;;8.20;99.90;;;;;;5061717;28;20391;-83
2023/04/01 04:51:35;;;;;;;4.78;1.42;;;8.20;99.90;;;;;;5080153;28;20390;-82
2023/04/01 04:54:02;;;;;;;3.17;1.15;;;8.20;99.90;;;;;;5077004;28;20427;-83
2023/04/01 04:56:27;;;;;;;3.97;1.20;;;8.20;99.90;;;;;;5076881;28;20419;-84
2023/04/01 04:58:53;;;;;;;4.40;1.30;;;8.20;99.90;;;;;;5076599;28;20399;-84
2023/04/01 05:01:19;;;;;;;4.73;1.90;;;8.20;99.90;;;;;;5059279;28;20478;-83
2023/04/01 05:03:45;;;;;;;4.93;1.40;;;8.30;99.90;;;;;;5076919;28;20404;-84
2023/04/01 05:06:13;;;;;;;8.50;1.30;;;8.30;99.90;;;;;;5059157;28;20821;-83
2023/04/01 05:08:40;;;;;;;1.55;0.80;;;8.40;99.90;;;;;;5076685;28;20387;-84
2023/04/01 05:11:09;;;;;;;5.53;1.05;;;8.40;99.90;;;;;;5058972;28;20415;-83
2023/04/01 05:13:35;;;;;;;5.80;1.30;;;8.50;99.90;;;;;;5041586;28;20467;-83
2023/04/01 05:16:01;;;;;;;3.83;1.30;;;8.50;99.90;;;;;;5075075;28;20418;-83
2023/04/01 05:18:27;;;;;;;2.78;1.00;;;8.50;99.90;;;;;;5056902;28;20886;-83
2023/04/01 05:20:54;;;;;;;2.40;1.00;;;8.60;99.90;;;;;;5075811;28;20474;-83
2023/04/01 05:23:21;;;;;;;2.72;1.10;;;8.60;99.90;;;;;;5076276;28;20386;-83
2023/04/01 05:25:48;;;;;;;3.28;1.05;;;8.60;99.90;;;;;;5076583;28;20862;-83
2023/04/01 05:28:14;;;;;;;3.97;1.00;;;8.60;99.90;;;;;;5078213;28;20452;-85
2023/04/01 05:30:41;;;;;;;4.10;1.00;;;8.60;99.90;;;;;;5076659;28;20387;-83
2023/04/01 05:33:07;;;;;;;2.60;0.80;;;8.70;99.90;;;;;;5069753;28;20391;-84
2023/04/01 05:35:33;;;;;;;2.60;1.23;;;8.70;99.90;;;;;;5077696;28;20897;-83
2023/04/01 05:37:59;;;;;;;2.47;0.90;;;8.70;99.90;;;;;;5077960;28;20394;-79
2023/04/01 05:40:24;;;;;;;4.00;1.50;;;8.70;99.90;;;;;;5061002;28;20404;-83
2023/04/01 05:42:50;;;;;;;4.18;0.93;;;8.70;99.90;;;;;;5060210;28;20392;-85
2023/04/01 05:45:16;;;;;;;3.20;1.00;;;8.80;99.90;;;;;;5048742;28;20903;-83
2023/04/01 05:47:42;;;;;;;3.10;1.00;;;8.80;99.90;;;;;;5058395;28;20481;-84
2023/04/01 05:50:10;;;;;;;2.88;1.00;;;8.80;99.90;;;;;;5061969;28;20439;-84
2023/04/01 05:52:36;;;;;;;3.22;1.00;;;8.80;99.90;;;;;;5042078;28;20392;-85
2023/04/01 05:55:02;;;;;;;3.83;1.10;;;8.80;99.90;;;;;;5044854;28;20406;-85
2023/04/01 05:57:27;;;;;;;5.22;1.20;;;8.90;99.90;;;;;;5068366;28;20391;-86
2023/04/01 05:59:53;;;;;;;2.80;0.93;;;8.80;99.90;;;;;;5047983;28;20404;-85
2023/04/01 06:02:19;;;;;;;2.53;1.03;;;8.80;99.90;;;;;;5052025;28;20423;-85
2023/04/01 06:04:45;;;;;;;3.92;0.90;;;8.90;99.90;;;;;;5071422;28;20384;-85
2023/04/01 06:07:15;;;;;;;4.30;1.50;;;9.00;99.90;;;;;;5056012;28;20503;-85
2023/04/01 06:09:42;;;;;;;3.88;1.00;;;9.00;99.90;;;;;;5060441;28;20455;-83
2023/04/01 06:12:45;;;;;;;4.37;1.00;;;9.00;99.90;;;;;;5078284;28;20404;-84
2023/04/01 06:15:20;;;;;;;2.30;1.13;;;9.10;99.90;;;;;;5088850;28;20388;-86
2023/04/01 06:18:35;;;;;;;1.45;0.88;;;9.10;99.90;;;;;;5062129;28;20391;-84
2023/04/01 06:21:20;;;;;;;2.72;0.70;;;9.20;99.90;;;;;;5028321;28;20392;-84
2023/04/01 06:24:11;;;;;;;2.30;1.08;;;9.20;99.90;;;;;;5060026;28;20375;-84
2023/04/01 06:27:09;;;;;;;1.65;0.77;;;9.10;99.90;;;;;;5077855;28;20387;-84
2023/04/01 06:29:46;;;;;;;1.80;0.60;;;9.20;99.90;;;;;;5053091;28;20402;-84
2023/04/01 06:32:24;;;;;;;2.53;0.90;;;9.20;99.90;;;;;;5061275;28;20379;-85
2023/04/01 06:34:58;;;;;;;2.80;1.20;;;9.20;99.90;;;;;;5058908;28;20396;-83
2023/04/01 06:37:50;;;;;;;4.15;0.93;;;9.20;99.90;;;;;;5058767;28;20438;-84
2023/04/01 06:40:50;;;;;;;1.35;0.70;;;9.30;99.90;;;;;;5026829;28;20414;-84
2023/04/01 06:43:42;;;;;;;1.75;0.55;;;9.20;99.90;;;;;;5077498;28;20422;-84
2023/04/01 06:46:43;;;;;;;1.60;0.70;;;9.30;99.90;;;;;;5058975;28;20394;-84
2023/04/01 06:49:36;;;;;;;2.10;0.60;;;9.30;99.90;;;;;;5041528;28;20771;-84
2023/04/01 06:52:01;;;;;;;2.42;0.68;;;9.40;99.90;;;;;;5043741;28;20826;-83
2023/04/01 06:54:49;;;;;;;2.90;1.30;;;9.30;99.90;;;;;;5078354;28;20391;-84
2023/04/01 06:57:24;;;;;;;2.27;0.43;;;9.40;99.90;;;;;;5059185;28;20391;-83
2023/04/01 06:59:51;;;;;;;2.00;0.60;;;9.40;99.90;;;;;;5052351;28;20948;-84
2023/04/01 07:02:38;;;;;;;1.30;0.70;;;9.40;99.90;;;;;;5051707;28;20752;-84
2023/04/01 07:05:05;;;;;;;2.10;0.60;;;9.40;99.90;;;;;;5052639;28;20386;-85
2023/04/01 07:07:42;;;;;;;2.10;0.90;;;9.50;99.90;;;;;;5051732;28;20409;-85
2023/04/01 07:10:33;;;;;;;3.07;1.00;;;9.50;99.90;;;;;;5055879;28;20496;-86
2023/04/01 07:13:06;;;;;;;1.30;0.60;;;9.50;99.90;;;;;;5054647;28;20399;-86
2023/04/01 07:15:40;;;;;;;2.80;0.80;;;9.60;99.90;;;;;;5088615;28;20418;-86
2023/04/01 07:18:32;;;;;;;3.63;1.08;;;9.60;99.90;;;;;;5062540;28;20426;-86
2023/04/01 07:20:58;;;;;;;2.60;0.80;;;9.60;99.90;;;;;;5047996;28;20895;-86
2023/04/01 07:23:40;;;;;;;2.30;0.70;;;9.70;99.90;;;;;;5055578;28;20467;-87
2023/04/01 07:26:35;;;;;;;1.40;0.80;;;9.70;99.90;;;;;;5054607;28;20474;-86
2023/04/01 07:29:01;;;;;;;1.48;0.85;;;9.80;99.90;;;;;;5054902;28;20390;-86
2023/04/01 07:31:45;;;;;;;2.53;0.95;;;9.70;99.90;;;;;;5072038;28;20395;-87
2023/04/01 07:34:22;;;;;;;1.88;0.70;;;9.70;99.90;;;;;;5084308;28;20879;-86
2023/04/01 07:37:03;;;;;;;2.05;0.73;;;9.70;99.90;;;;;;5073636;28;20772;-86
2023/04/01 07:39:59;;;;;;;2.67;0.70;;;9.70;99.90;;;;;;5064855;28;20426;-86
2023/04/01 07:42:33;;;;;;;1.42;0.60;;;9.70;99.90;;;;;;5090513;28;20934;-86
2023/04/01 07:45:11;;;;;;;2.67;1.00;;;9.70;99.90;;;;;;5069259;28;20762;-86
2023/04/01 07:48:21;;;;;;;2.13;1.02;;;9.70;99.90;;;;;;5064727;28;20868;-85
2023/04/01 07:51:04;;;;;;;2.70;0.80;;;9.70;99.90;;;;;;5027512;28;20777;-85
2023/04/01 07:53:38;;;;;;;4.30;1.05;;;9.70;99.90;;;;;;5054382;28;20399;-88
2023/04/01 07:56:31;;;;;;;1.95;0.73;;;9.70;99.90;;;;;;5063602;28;20474;-86
2023/04/01 07:59:02;;;;;;;2.80;0.70;;;9.70;99.90;;;;;;5087864;28;20449;-85
2023/04/01 08:01:49;;;;;;;2.25;0.82;;;9.70;99.90;;;;;;5058929;28;20387;-85
2023/04/01 08:04:36;;;;;;;2.60;0.85;;;9.80;99.90;;;;;;5070610;28;20912;-86
2023/04/01 08:07:32;;;;;;;2.10;0.80;;;9.80;99.90;;;;;;5068274;28;20433;-90
2023/04/01 08:10:16;;;;;;;2.50;0.60;;;9.80;99.90;;;;;;5055163;28;20384;-85
2023/04/01 08:13:10;;;;;;;2.60;0.90;;;9.90;99.90;;;;;;5053934;28;20437;-85
2023/04/01 08:16:01;;;;;;;2.42;0.80;;;9.90;99.90;;;;;;5072497;28;20415;-85
2023/04/01 08:18:35;;;;;;;2.55;0.70;;;9.80;99.90;;;;;;5063900;28;20392;-85
2023/04/01 08:21:05;;;;;;;1.97;0.60;;;9.90;99.90;;;;;;5057064;28;20436;-86
2023/04/01 08:23:40;;;;;;;1.45;0.60;;;9.90;99.90;;;;;;5056146;28;20498;-86
2023/04/01 08:26:44;;;;;;;2.20;0.65;;;9.90;99.90;;;;;;5076583;28;20388;-86
2023/04/01 08:29:25;;;;;;;2.50;0.40;;;9.80;99.90;;;;;;5053929;28;20512;-86
2023/04/01 08:32:03;;;;;;;2.58;0.60;;;9.90;99.90;;;;;;5075046;28;20386;-86
2023/04/01 08:34:37;;;;;;;2.28;0.60;;;9.90;99.90;;;;;;5072430;28;20731;-85
2023/04/01 08:37:24;;;;;;;2.17;0.75;;;9.80;99.90;;;;;;5074312;28;20822;-85
2023/04/01 08:40:20;;;;;;;1.35;0.70;;;9.90;99.90;;;;;;5083749;28;20833;-85
2023/04/01 08:43:24;;;;;;;3.70;0.90;;;9.90;99.90;;;;;;5072400;28;20862;-85
2023/04/01 08:46:08;;;;;;;1.90;0.50;;;10.00;99.90;;;;;;5086047;28;20482;-85
2023/04/01 08:48:34;;;;;;;2.30;0.90;;;9.90;99.90;;;;;;5098056;28;20375;-84
2023/04/01 08:51:20;;;;;;;1.27;0.60;;;10.00;99.90;;;;;;5074932;28;20418;-85
2023/04/01 08:53:54;;;;;;;1.85;0.90;;;10.10;99.90;;;;;;5061596;28;20401;-86
2023/04/01 08:56:41;;;;;;;2.70;0.80;;;10.10;99.90;;;;;;5075711;28;20386;-87
2023/04/01 08:59:28;;;;;;;1.20;0.80;;;10.10;99.90;;;;;;5115127;28;20432;-87
2023/04/01 09:02:26;;;;;;;1.50;1.00;;;10.20;99.90;;;;;;5083286;28;20473;-86
2023/04/01 09:05:06;;;;;;;2.58;0.98;;;10.20;99.90;;;;;;5084092;28;20383;-86
2023/04/01 09:07:47;;;;;;;1.75;0.70;;;10.30;99.90;;;;;;5083804;28;20375;-86
2023/04/01 09:10:32;;;;;;;2.17;0.70;;;10.20;99.90;;;;;;5066238;28;20402;-84
2023/04/01 09:13:17;;;;;;;1.30;0.60;;;10.20;99.90;;;;;;5059845;28;20411;-89
2023/04/01 09:16:20;;;;;;;3.25;0.90;;;10.20;99.90;;;;;;5027369;28;20407;-86
2023/04/01 09:19:12;;;;;;;1.15;0.70;;;10.30;99.90;;;;;;5053647;28;20388;-89
2023/04/01 09:22:13;;;;;;;1.80;0.80;;;10.30;99.90;;;;;;5091969;28;20382;-88
2023/04/01 09:24:47;;;;;;;2.10;1.10;;;10.20;99.90;;;;;;5073086;28;20864;-87
2023/04/01 09:27:36;;;;;;;1.35;0.60;;;10.30;99.90;;;;;;5062348;28;20384;-86
2023/04/01 09:30:22;;;;;;;1.60;0.90;;;10.30;99.90;;;;;;5054925;28;20384;-87
2023/04/01 09:33:10;;;;;;;2.50;1.00;;;10.30;99.90;;;;;;5063943;28;20901;-86
2023/04/01 09:35:55;;;;;;;1.45;0.80;;;10.30;99.90;;;;;;5061022;28;20485;-87
2023/04/01 09:38:26;;;;;;;2.47;1.00;;;10.40;99.90;;;;;;5082387;28;20409;-86
2023/04/01 09:41:17;;;;;;;2.88;1.17;;;10.30;99.90;;;;;;5073228;28;20408;-85
2023/04/01 09:44:08;;;;;;;1.50;0.60;;;10.40;99.90;;;;;;5070856;28;20382;-87
2023/04/01 09:46:59;;;;;;;2.00;0.70;;;10.40;99.90;;;;;;5048792;28;20387;-85
2023/04/01 09:50:13;;;;;;;2.50;1.00;;;10.40;99.90;;;;;;5100196;28;20420;-85
2023/04/01 09:52:49;;;;;;;1.30;0.88;;;10.50;99.90;;;;;;4993320;28;20775;-85
2023/04/01 09:55:45;;;;;;;3.97;0.93;;;10.50;99.90;;;;;;5088767;28;20381;-86
2023/04/01 09:58:20;;;;;;;3.00;1.10;;;10.50;99.90;;;;;;5047467;28;20875;-86
2023/04/01 10:01:07;;;;;;;2.60;0.90;;;10.50;99.90;;;;;;5064810;28;20411;-87
2023/04/01 10:04:07;;;;;;;2.15;0.70;;;10.60;99.90;;;;;;5073761;28;20381;-87
2023/04/01 10:06:54;;;;;;;1.35;0.82;;;10.40;99.90;;;;;;5066119;28;20382;-87
2023/04/01 10:10:04;;;;;;;1.40;0.90;;;10.50;99.90;;;;;;5082561;28;20372;-87
2023/04/01 10:13:01;;;;;;;1.90;0.95;;;10.50;99.90;;;;;;5048129;28;20398;-87
2023/04/01 10:15:51;;;;;;;1.38;0.65;;;10.40;99.90;;;;;;5066191;28;20406;-89
2023/04/01 10:18:44;;;;;;;1.88;0.80;;;10.40;99.90;;;;;;5050817;28;20382;-85
2023/04/01 10:21:54;;;;;;;1.88;0.60;;;10.40;99.90;;;;;;5059767;28;20455;-86
2023/04/01 10:24:28;;;;;;;1.83;0.40;;;10.40;99.90;;;;;;4954181;29;20480;-87
2023/04/01 10:27:24;;;;;;;1.52;0.70;;;10.40;99.90;;;;;;5042133;28;20387;-87
2023/04/01 10:30:13;;;;;;;1.75;0.60;;;10.40;99.90;;;;;;5089671;28;21216;-89
2023/04/01 10:32:59;;;;;;;1.50;0.60;;;10.40;99.90;;;;;;5068576;28;20388;-88
2023/04/01 10:36:02;;;;;;;3.20;0.70;;;10.50;99.90;;;;;;5068162;28;20803;-90
2023/04/01 10:38:57;;;;;;;3.35;1.00;;;10.50;99.90;;;;;;5051248;28;20873;-89
2023/04/01 10:41:50;;;;;;;2.50;0.70;;;10.50;99.90;;;;;;5053076;28;20384;-88
2023/04/01 10:44:45;;;;;;;0.65;0.50;;;10.60;99.90;;;;;;5083236;28;20383;-90
2023/04/01 10:47:45;;;;;;;3.20;0.70;;;10.60;99.90;;;;;;5062243;28;20392;-89
2023/04/01 10:50:25;;;;;;;2.05;0.60;;;10.50;99.90;;;;;;5073800;28;20896;-89
2023/04/01 10:52:53;;;;;;;1.90;0.50;;;10.50;99.90;;;;;;5081389;28;20386;-90
2023/04/01 10:56:06;;;;;;;1.60;0.50;;;10.60;99.90;;;;;;5066534;28;20391;-89
2023/04/01 10:58:50;;;;;;;1.65;0.60;;;10.60;99.90;;;;;;5051825;28;20399;-87
2023/04/01 11:01:40;;;;;;;2.42;0.90;;;10.50;99.90;;;;;;5076893;28;20497;-89
2023/04/01 11:04:33;;;;;;;2.00;0.60;;;10.50;99.90;;;;;;5060898;28;20764;-88
2023/04/01 11:07:13;;;;;;;2.30;0.60;;;10.50;99.90;;;;;;5074745;28;20392;-88
2023/04/01 11:10:06;;;;;;;1.80;0.60;;;10.50;99.90;;;;;;5054273;28;20393;-88
2023/04/01 11:13:19;;;;;;;0.55;0.50;;;10.50;99.90;;;;;;5058018;28;20943;-87
2023/04/01 11:15:47;;;;;;;1.70;0.70;;;10.40;99.90;;;;;;5075993;28;20391;-88
2023/04/01 11:18:22;;;;;;;1.30;0.75;;;10.50;99.90;;;;;;5073358;28;20911;-87
2023/04/01 11:21:19;;;;;;;1.97;0.60;;;10.50;99.90;;;;;;5075537;28;20804;-88
2023/04/01 11:23:50;;;;;;;2.90;0.60;;;10.30;99.90;;;;;;5071878;28;20408;-89
2023/04/01 11:26:33;;;;;;;1.10;0.60;;;10.40;99.90;;;;;;5098140;28;20379;-88
2023/04/01 11:29:06;;;;;;;1.70;0.60;;;10.40;99.90;;;;;;5072994;28;20390;-87
2023/04/01 11:31:53;;;;;;;1.90;0.90;;;10.40;99.90;;;;;;5067628;28;20368;-88
2023/04/01 11:34:46;;;;;;;1.27;0.60;;;10.40;99.90;;;;;;5080420;28;20432;-87
2023/04/01 11:37:43;;;;;;;1.83;0.73;;;10.30;99.90;;;;;;5059111;28;20382;-87
2023/04/01 11:40:40;;;;;;;0.85;0.47;;;10.20;99.90;;;;;;5036832;28;20405;-87
2023/04/01 11:43:47;;;;;;;1.23;0.90;;;10.20;99.90;;;;;;5067301;28;20416;-87
2023/04/01 11:46:41;;;;;;;1.92;0.90;;;10.30;99.90;;;;;;5029526;28;20408;-86
2023/04/01 11:49:21;;;;;;;2.53;0.77;;;10.30;99.90;;;;;;5058694;28;20392;-85
2023/04/01 11:52:01;;;;;;;1.50;0.60;;;10.30;99.90;;;;;;5067147;28;20368;-84
2023/04/01 11:54:31;;;;;;;1.60;1.00;;;10.40;99.90;;;;;;5066828;28;20381;-87
2023/04/01 11:57:21;;;;;;;1.55;0.80;;;10.30;99.90;;;;;;5079330;28;20392;-86
2023/04/01 11:59:57;;;;;;;0.93;0.60;;;10.30;99.90;;;;;;5083304;28;20404;-84
2023/04/01 12:02:42;;;;;;;0.93;0.80;;;10.50;99.90;;;;;;5068863;28;20514;-85
2023/04/01 12:05:17;;;;;;;1.55;0.60;;;10.50;99.90;;;;;;5086741;28;20764;-84
2023/04/01 12:07:55;;;;;;;1.38;0.70;;;10.50;99.90;;;;;;5078745;28;20376;-85
2023/04/01 12:10:50;;;;;;;1.52;0.80;;;10.40;99.90;;;;;;5083037;28;20380;-87
2023/04/01 12:13:44;;;;;;;1.20;0.60;;;10.50;99.90;;;;;;5056010;28;20391;-85
2023/04/01 12:16:36;;;;;;;1.13;0.70;;;10.60;99.90;;;;;;5082433;28;20468;-86
2023/04/01 12:19:12;;;;;;;1.90;0.60;;;10.70;99.90;;;;;;5067839;28;20465;-85
2023/04/01 12:21:54;;;;;;;1.60;0.60;;;10.80;99.90;;;;;;5067380;28;21198;-85
2023/04/01 12:24:36;;;;;;;1.20;0.50;;;10.80;99.90;;;;;;5083781;28;20480;-87
2023/04/01 12:27:37;;;;;;;0.90;0.50;;;10.70;99.90;;;;;;5056569;28;20388;-86
2023/04/01 12:30:50;;;;;;;1.02;0.50;;;10.80;99.90;;;;;;5067448;28;20445;-86
2023/04/01 12:33:24;;;;;;;0.90;0.60;;;10.80;99.90;;;;;;5003224;28;20457;-86
2023/04/01 12:36:13;;;;;;;0.70;0.55;;;10.80;99.90;;;;;;5061889;28;20727;-86
2023/04/01 12:38:49;;;;;;;1.40;0.50;;;10.80;99.90;;;;;;5085928;28;20397;-87
2023/04/01 12:41:21;;;;;;;1.42;0.60;;;10.80;99.90;;;;;;5064080;28;20398;-86
2023/04/01 12:44:07;;;;;;;2.05;0.65;;;10.80;99.90;;;;;;5063649;28;20479;-88
2023/04/01 12:47:06;;;;;;;1.60;0.50;;;10.90;99.90;;;;;;5065150;28;20889;-87
2023/04/01 12:50:10;;;;;;;1.30;0.60;;;10.90;99.90;;;;;;5091217;28;20386;-86
2023/04/01 12:53:12;;;;;;;1.40;1.10;;;10.90;99.90;;;;;;5076246;28;20437;-85
2023/04/01 12:55:39;;;;;;;1.60;0.50;;;11.00;99.90;;;;;;5063119;28;20404;-87
2023/04/01 12:58:21;;;;;;;2.42;0.90;;;10.90;99.90;;;;;;5056368;28;20390;-86
2023/04/01 13:01:25;;;;;;;1.30;0.60;;;10.90;99.90;;;;;;5068305;28;20403;-85
2023/04/01 13:04:24;;;;;;;1.05;0.60;;;10.90;99.90;;;;;;5057270;28;20460;-86
2023/04/01 13:07:23;;;;;;;2.10;0.60;;;10.90;99.90;;;;;;5061472;28;20955;-88
2023/04/01 13:09:51;;;;;;;1.38;0.50;;;10.90;99.90;;;;;;5070472;28;20395;-87
2023/04/01 13:12:55;;;;;;;1.10;0.60;;;10.90;99.90;;;;;;5061832;28;20451;-87
2023/04/01 13:15:52;;;;;;;1.15;0.55;;;11.00;99.90;;;;;;5074248;28;20395;-85
2023/04/01 13:18:27;;;;;;;1.80;0.90;;;11.00;99.90;;;;;;5061889;28;20399;-86
2023/04/01 13:21:07;;;;;;;1.50;0.50;;;10.90;99.90;;;;;;5062630;28;20408;-86
2023/04/01 13:23:32;;;;;;;0.80;0.60;;;11.10;99.90;;;;;;5052915;28;20394;-86
2023/04/01 13:26:03;;;;;;;1.80;0.60;;;11.20;99.90;;;;;;5060808;28;20744;-85
2023/04/01 13:28:40;;;;;;;2.10;0.80;;;11.20;99.90;;;;;;5082002;28;20465;-86
2023/04/01 13:31:16;;;;;;;2.00;0.60;;;11.20;99.90;;;;;;5093508;28;20420;-86
2023/04/01 13:34:06;;;;;;;1.77;1.02;;;11.30;99.90;;;;;;5078624;28;20382;-86
2023/04/01 13:36:47;;;;;;;2.60;0.80;;;11.20;99.90;;;;;;5075706;28;20382;-86
2023/04/01 13:39:27;;;;;;;2.50;0.50;;;11.30;99.90;;;;;;5072440;28;21023;-87
2023/04/01 13:42:18;;;;;;;2.53;0.70;;;11.40;99.90;;;;;;5071181;28;20873;-87
2023/04/01 13:44:54;;;;;;;1.70;0.60;;;11.50;99.90;;;;;;5058958;28;20428;-86
2023/04/01 13:47:44;;;;;;;1.90;0.90;;;11.50;99.90;;;;;;5036580;28;20369;-86